sensor_id;sensor_type;location;lat;lon;timestamp;pressure;altitude;pressure_sealevel;temperature;humidity
10097;BME280;5087;42.662;23.466;2023-04-03T00:00:57;94758.63;;;3.34;100.00
10097;BME280;5087;42.662;23.466;2023-04-03T00:03:25;94813.56;;;3.66;100.00
10097;BME280;5087;42.662;23.466;2023-04-03T00:05:52;94805.41;;;3.76;100.00
10097;BME280;5087;42.662;23.466;2023-04-03T00:08:20;94795.00;;;3.94;100.00
10097;BME280;5087;42.662;23.466;2023-04-03T00:10:48;94778.75;;;3.37;100.00
10097;BME280;5087;42.662;23.466;2023-04-03T00:13:16;94797.16;;;3.48;100.00
10097;BME280;5087;42.662;23.466;2023-04-03T00:15:44;94762.69;;;3.07;100.00
10097;BME280;5087;42.662;23.466;2023-04-03T00:18:12;94787.75;;;3.22;100.00
10097;BME280;5087;42.662;23.466;2023-04-03T00:20:39;94759.91;;;3.17;100.00
10097;BME280;5087;42.662;23.466;2023-04-03T00:23:10;94780.56;;;3.17;100.00
10097;BME280;5087;42.662;23.466;2023-04-03T00:25:41;94764.31;;;3.03;100.00
10097;BME280;5087;42.662;23.466;2023-04-03T00:28:10;94765.16;;;3.04;100.00
10097;BME280;5087;42.662;23.466;2023-04-03T00:30:37;94780.69;;;3.31;100.00
10097;BME280;5087;42.662;23.466;2023-04-03T00:33:06;94761.38;;;3.53;100.00
10097;BME280;5087;42.662;23.466;2023-04-03T00:35:34;94783.41;;;3.26;100.00
10097;BME280;5087;42.662;23.466;2023-04-03T00:38:02;94790.91;;;3.29;100.00
10097;BME280;5087;42.662;23.466;2023-04-03T00:40:33;94796.09;;;3.44;100.00
10097;BME280;5087;42.662;23.466;2023-04-03T00:43:01;94780.09;;;3.34;100.00
10097;BME280;5087;42.662;23.466;2023-04-03T00:45:34;94792.97;;;3.37;100.00
10097;BME280;5087;42.662;23.466;2023-04-03T00:48:04;94793.59;;;3.29;100.00
10097;BME280;5087;42.662;23.466;2023-04-03T00:50:36;94784.31;;;3.16;100.00
10097;BME280;5087;42.662;23.466;2023-04-03T00:53:04;94793.44;;;3.15;100.00
10097;BME280;5087;42.662;23.466;2023-04-03T00:55:34;94791.72;;;3.00;100.00
10097;BME280;5087;42.662;23.466;2023-04-03T00:58:03;94786.38;;;3.00;100.00
10097;BME280;5087;42.662;23.466;2023-04-03T01:00:31;94784.75;;;2.99;100.00
10097;BME280;5087;42.662;23.466;2023-04-03T01:02:58;94804.09;;;2.96;100.00
10097;BME280;5087;42.662;23.466;2023-04-03T01:05:27;94791.50;;;2.96;100.00
10097;BME280;5087;42.662;23.466;2023-04-03T01:07:56;94796.28;;;2.65;100.00
10097;BME280;5087;42.662;23.466;2023-04-03T01:10:24;94795.03;;;2.57;100.00
10097;BME280;5087;42.662;23.466;2023-04-03T01:12:52;94740.91;;;2.20;100.00
10097;BME280;5087;42.662;23.466;2023-04-03T01:15:21;94799.06;;;2.55;100.00
10097;BME280;5087;42.662;23.466;2023-04-03T01:17:50;94797.66;;;2.67;100.00
10097;BME280;5087;42.662;23.466;2023-04-03T01:21:07;94804.97;;;2.57;100.00
10097;BME280;5087;42.662;23.466;2023-04-03T01:23:55;94809.28;;;2.52;100.00
10097;BME280;5087;42.662;23.466;2023-04-03T01:26:25;94795.81;;;2.58;100.00
10097;BME280;5087;42.662;23.466;2023-04-03T01:28:54;94813.44;;;2.69;100.00
10097;BME280;5087;42.662;23.466;2023-04-03T01:31:25;94801.66;;;2.65;100.00
10097;BME280;5087;42.662;23.466;2023-04-03T01:33:56;94804.16;;;2.56;100.00
10097;BME280;5087;42.662;23.466;2023-04-03T01:36:25;94815.19;;;2.04;100.00
10097;BME280;5087;42.662;23.466;2023-04-03T01:38:54;94808.13;;;1.69;100.00
10097;BME280;5087;42.662;23.466;2023-04-03T01:41:22;94802.84;;;1.53;100.00
10097;BME280;5087;42.662;23.466;2023-04-03T01:43:54;94806.41;;;1.23;100.00
10097;BME280;5087;42.662;23.466;2023-04-03T01:46:21;94747.44;;;0.73;100.00
10097;BME280;5087;42.662;23.466;2023-04-03T01:48:49;94794.66;;;1.08;100.00
10097;BME280;5087;42.662;23.466;2023-04-03T01:51:18;94805.34;;;1.19;100.00
10097;BME280;5087;42.662;23.466;2023-04-03T01:53:46;94809.88;;;1.29;100.00
10097;BME280;5087;42.662;23.466;2023-04-03T01:56:14;94814.69;;;1.32;100.00
10097;BME280;5087;42.662;23.466;2023-04-03T01:58:44;94817.34;;;1.32;100.00
10097;BME280;5087;42.662;23.466;2023-04-03T02:01:11;94808.81;;;1.30;100.00
10097;BME280;5087;42.662;23.466;2023-04-03T02:03:39;94808.53;;;1.36;100.00
10097;BME280;5087;42.662;23.466;2023-04-03T02:06:06;94817.31;;;1.42;100.00
10097;BME280;5087;42.662;23.466;2023-04-03T02:08:35;94811.97;;;1.47;100.00
10097;BME280;5087;42.662;23.466;2023-04-03T02:11:05;94813.28;;;1.50;100.00
10097;BME280;5087;42.662;23.466;2023-04-03T02:13:33;94816.22;;;1.53;100.00
10097;BME280;5087;42.662;23.466;2023-04-03T02:16:06;94816.19;;;1.58;100.00
10097;BME280;5087;42.662;23.466;2023-04-03T02:18:35;94818.38;;;1.56;100.00
10097;BME280;5087;42.662;23.466;2023-04-03T02:21:02;94797.00;;;1.36;100.00
10097;BME280;5087;42.662;23.466;2023-04-03T02:23:29;94800.75;;;1.35;100.00
10097;BME280;5087;42.662;23.466;2023-04-03T02:26:04;94799.13;;;1.44;100.00
10097;BME280;5087;42.662;23.466;2023-04-03T02:28:32;94755.13;;;1.05;100.00
10097;BME280;5087;42.662;23.466;2023-04-03T02:30:59;94794.38;;;1.25;100.00
10097;BME280;5087;42.662;23.466;2023-04-03T02:33:26;94742.63;;;0.85;100.00
10097;BME280;5087;42.662;23.466;2023-04-03T02:35:54;94797.03;;;1.31;100.00
10097;BME280;5087;42.662;23.466;2023-04-03T02:38:22;94802.13;;;1.27;100.00
10097;BME280;5087;42.662;23.466;2023-04-03T02:40:50;94802.38;;;1.31;100.00
10097;BME280;5087;42.662;23.466;2023-04-03T02:43:19;94780.47;;;1.23;100.00
10097;BME280;5087;42.662;23.466;2023-04-03T02:45:46;94771.66;;;1.18;100.00
10097;BME280;5087;42.662;23.466;2023-04-03T02:48:14;94790.59;;;1.37;100.00
10097;BME280;5087;42.662;23.466;2023-04-03T02:50:42;94793.50;;;1.46;100.00
10097;BME280;5087;42.662;23.466;2023-04-03T02:53:09;94795.88;;;1.52;100.00
10097;BME280;5087;42.662;23.466;2023-04-03T02:55:37;94765.41;;;1.43;100.00
10097;BME280;5087;42.662;23.466;2023-04-03T02:58:04;94789.47;;;1.53;100.00
10097;BME280;5087;42.662;23.466;2023-04-03T03:00:33;94776.16;;;1.38;100.00
10097;BME280;5087;42.662;23.466;2023-04-03T03:03:01;94781.53;;;1.33;100.00
10097;BME280;5087;42.662;23.466;2023-04-03T03:05:28;94782.63;;;1.16;100.00
10097;BME280;5087;42.662;23.466;2023-04-03T03:07:57;94776.75;;;1.14;100.00
10097;BME280;5087;42.662;23.466;2023-04-03T03:10:24;94796.53;;;1.13;100.00
10097;BME280;5087;42.662;23.466;2023-04-03T03:12:52;94774.88;;;1.09;100.00
10097;BME280;5087;42.662;23.466;2023-04-03T03:15:19;94774.63;;;1.06;100.00
10097;BME280;5087;42.662;23.466;2023-04-03T03:17:49;94774.06;;;1.19;100.00
10097;BME280;5087;42.662;23.466;2023-04-03T03:20:16;94782.34;;;1.18;100.00
10097;BME280;5087;42.662;23.466;2023-04-03T03:22:44;94753.03;;;0.92;100.00
10097;BME280;5087;42.662;23.466;2023-04-03T03:25:11;94776.78;;;0.88;100.00
10097;BME280;5087;42.662;23.466;2023-04-03T03:27:39;94770.97;;;0.71;100.00
10097;BME280;5087;42.662;23.466;2023-04-03T03:30:10;94780.03;;;0.85;100.00
10097;BME280;5087;42.662;23.466;2023-04-03T03:32:37;94780.56;;;0.82;100.00
10097;BME280;5087;42.662;23.466;2023-04-03T03:35:07;94774.69;;;0.75;100.00
10097;BME280;5087;42.662;23.466;2023-04-03T03:37:34;94779.50;;;0.68;100.00
10097;BME280;5087;42.662;23.466;2023-04-03T03:40:02;94781.09;;;0.58;100.00
10097;BME280;5087;42.662;23.466;2023-04-03T03:42:30;94788.88;;;0.60;100.00
10097;BME280;5087;42.662;23.466;2023-04-03T03:44:57;94781.38;;;0.62;100.00
10097;BME280;5087;42.662;23.466;2023-04-03T03:47:24;94756.53;;;0.51;100.00
10097;BME280;5087;42.662;23.466;2023-04-03T03:49:53;94790.44;;;0.71;100.00
10097;BME280;5087;42.662;23.466;2023-04-03T03:52:22;94770.69;;;0.62;100.00
10097;BME280;5087;42.662;23.466;2023-04-03T03:54:49;94786.16;;;0.70;100.00
10097;BME280;5087;42.662;23.466;2023-04-03T03:57:18;94762.41;;;0.58;100.00
10097;BME280;5087;42.662;23.466;2023-04-03T03:59:45;94734.38;;;0.40;100.00
10097;BME280;5087;42.662;23.466;2023-04-03T04:02:16;94765.91;;;0.59;100.00
10097;BME280;5087;42.662;23.466;2023-04-03T04:04:44;94758.94;;;0.47;100.00
10097;BME280;5087;42.662;23.466;2023-04-03T04:07:12;94784.59;;;0.74;100.00
10097;BME280;5087;42.662;23.466;2023-04-03T04:09:46;94789.38;;;0.77;100.00
10097;BME280;5087;42.662;23.466;2023-04-03T04:12:14;94782.72;;;0.70;100.00
10097;BME280;5087;42.662;23.466;2023-04-03T04:14:44;94782.72;;;0.70;100.00
10097;BME280;5087;42.662;23.466;2023-04-03T04:17:13;94780.56;;;0.61;100.00
10097;BME280;5087;42.662;23.466;2023-04-03T04:19:43;94775.22;;;0.51;100.00
10097;BME280;5087;42.662;23.466;2023-04-03T04:22:19;94789.38;;;0.72;100.00
10097;BME280;5087;42.662;23.466;2023-04-03T04:24:49;94788.06;;;0.80;100.00
10097;BME280;5087;42.662;23.466;2023-04-03T04:27:16;94795.50;;;0.93;100.00
10097;BME280;5087;42.662;23.466;2023-04-03T04:29:44;94804.59;;;1.03;100.00
10097;BME280;5087;42.662;23.466;2023-04-03T04:32:12;94806.44;;;1.07;100.00
10097;BME280;5087;42.662;23.466;2023-04-03T04:34:40;94807.22;;;1.23;100.00
10097;BME280;5087;42.662;23.466;2023-04-03T04:37:09;94752.41;;;1.16;100.00
10097;BME280;5087;42.662;23.466;2023-04-03T04:39:40;94774.00;;;1.40;100.00
10097;BME280;5087;42.662;23.466;2023-04-03T04:42:27;94753.75;;;1.13;100.00
10097;BME280;5087;42.662;23.466;2023-04-03T04:44:59;94761.00;;;1.13;100.00
10097;BME280;5087;42.662;23.466;2023-04-03T04:47:29;94800.97;;;1.54;100.00
10097;BME280;5087;42.662;23.466;2023-04-03T04:49:57;94797.47;;;1.58;100.00
10097;BME280;5087;42.662;23.466;2023-04-03T04:52:26;94809.25;;;1.52;100.00
10097;BME280;5087;42.662;23.466;2023-04-03T04:54:56;94810.34;;;1.56;100.00
10097;BME280;5087;42.662;23.466;2023-04-03T04:57:25;94798.84;;;1.46;100.00
10097;BME280;5087;42.662;23.466;2023-04-03T04:59:54;94828.75;;;1.63;100.00
10097;BME280;5087;42.662;23.466;2023-04-03T05:02:21;94837.03;;;1.67;100.00
10097;BME280;5087;42.662;23.466;2023-04-03T05:04:48;94813.53;;;1.53;100.00
10097;BME280;5087;42.662;23.466;2023-04-03T05:07:26;94797.53;;;1.48;100.00
10097;BME280;5087;42.662;23.466;2023-04-03T05:09:56;94843.75;;;2.19;100.00
10097;BME280;5087;42.662;23.466;2023-04-03T05:12:26;94816.44;;;2.22;100.00
10097;BME280;5087;42.662;23.466;2023-04-03T05:14:58;94850.63;;;2.41;100.00
10097;BME280;5087;42.662;23.466;2023-04-03T05:17:27;94848.13;;;2.50;100.00
10097;BME280;5087;42.662;23.466;2023-04-03T05:19:58;94858.28;;;2.53;100.00
10097;BME280;5087;42.662;23.466;2023-04-03T05:22:31;94823.41;;;2.24;100.00
10097;BME280;5087;42.662;23.466;2023-04-03T05:25:07;94821.75;;;2.33;100.00
10097;BME280;5087;42.662;23.466;2023-04-03T05:27:47;94770.22;;;2.07;100.00
10097;BME280;5087;42.662;23.466;2023-04-03T05:30:24;94845.91;;;2.62;100.00
10097;BME280;5087;42.662;23.466;2023-04-03T05:32:52;94820.94;;;2.67;100.00
10097;BME280;5087;42.662;23.466;2023-04-03T05:35:32;94851.28;;;2.97;100.00
10097;BME280;5087;42.662;23.466;2023-04-03T05:38:15;94815.75;;;2.81;100.00
10097;BME280;5087;42.662;23.466;2023-04-03T05:40:49;94815.41;;;2.88;100.00
10097;BME280;5087;42.662;23.466;2023-04-03T05:43:24;94758.47;;;2.37;100.00
10097;BME280;5087;42.662;23.466;2023-04-03T05:45:53;94797.59;;;2.38;100.00
10097;BME280;5087;42.662;23.466;2023-04-03T05:48:28;94831.03;;;2.41;100.00
10097;BME280;5087;42.662;23.466;2023-04-03T05:50:56;94825.25;;;2.28;100.00
10097;BME280;5087;42.662;23.466;2023-04-03T05:53:27;94832.69;;;2.36;100.00
10097;BME280;5087;42.662;23.466;2023-04-03T05:56:00;94836.13;;;2.42;100.00
10097;BME280;5087;42.662;23.466;2023-04-03T05:58:32;94830.75;;;2.47;100.00
10097;BME280;5087;42.662;23.466;2023-04-03T06:01:05;94818.97;;;2.48;100.00
10097;BME280;5087;42.662;23.466;2023-04-03T06:03:34;94817.19;;;2.68;100.00
10097;BME280;5087;42.662;23.466;2023-04-03T06:06:04;94831.47;;;2.93;100.00
10097;BME280;5087;42.662;23.466;2023-04-03T06:08:31;94823.22;;;2.84;100.00
10097;BME280;5087;42.662;23.466;2023-04-03T06:10:59;94806.47;;;2.68;100.00
10097;BME280;5087;42.662;23.466;2023-04-03T06:13:27;94783.03;;;2.49;100.00
10097;BME280;5087;42.662;23.466;2023-04-03T06:16:00;94824.63;;;2.76;100.00
10097;BME280;5087;42.662;23.466;2023-04-03T06:18:34;94818.00;;;2.98;100.00
10097;BME280;5087;42.662;23.466;2023-04-03T06:21:05;94808.06;;;3.04;100.00
10097;BME280;5087;42.662;23.466;2023-04-03T06:23:37;94795.66;;;3.08;100.00
10097;BME280;5087;42.662;23.466;2023-04-03T06:26:13;94802.81;;;3.17;100.00
10097;BME280;5087;42.662;23.466;2023-04-03T06:28:43;94767.31;;;3.01;100.00
10097;BME280;5087;42.662;23.466;2023-04-03T06:31:13;94750.97;;;2.98;100.00
10097;BME280;5087;42.662;23.466;2023-04-03T06:33:42;94812.03;;;3.60;100.00
10097;BME280;5087;42.662;23.466;2023-04-03T06:36:11;94822.13;;;3.68;100.00
10097;BME280;5087;42.662;23.466;2023-04-03T06:38:39;94746.38;;;3.52;100.00
10097;BME280;5087;42.662;23.466;2023-04-03T06:41:10;94828.47;;;4.21;100.00
10097;BME280;5087;42.662;23.466;2023-04-03T06:43:45;94776.75;;;3.91;100.00
10097;BME280;5087;42.662;23.466;2023-04-03T06:46:20;94826.22;;;4.47;100.00
10097;BME280;5087;42.662;23.466;2023-04-03T06:48:50;94806.38;;;4.95;100.00
10097;BME280;5087;42.662;23.466;2023-04-03T06:51:19;94806.09;;;5.44;100.00
10097;BME280;5087;42.662;23.466;2023-04-03T06:53:51;94815.06;;;5.81;100.00
10097;BME280;5087;42.662;23.466;2023-04-03T06:56:19;94806.22;;;5.80;100.00
10097;BME280;5087;42.662;23.466;2023-04-03T06:58:49;94804.59;;;5.93;100.00
10097;BME280;5087;42.662;23.466;2023-04-03T07:01:18;94802.09;;;6.25;100.00
10097;BME280;5087;42.662;23.466;2023-04-03T07:03:49;94798.69;;;6.19;100.00
10097;BME280;5087;42.662;23.466;2023-04-03T07:06:17;94773.47;;;6.15;100.00
10097;BME280;5087;42.662;23.466;2023-04-03T07:08:48;94806.03;;;6.78;100.00
10097;BME280;5087;42.662;23.466;2023-04-03T07:11:19;94783.50;;;6.60;100.00
10097;BME280;5087;42.662;23.466;2023-04-03T07:13:52;94795.03;;;6.74;100.00
10097;BME280;5087;42.662;23.466;2023-04-03T07:16:21;94789.75;;;6.69;100.00
10097;BME280;5087;42.662;23.466;2023-04-03T07:18:48;94776.19;;;6.38;100.00
10097;BME280;5087;42.662;23.466;2023-04-03T07:21:15;94795.28;;;6.64;100.00
10097;BME280;5087;42.662;23.466;2023-04-03T07:23:43;94795.59;;;6.26;100.00
10097;BME280;5087;42.662;23.466;2023-04-03T07:26:14;94726.63;;;5.60;100.00
10097;BME280;5087;42.662;23.466;2023-04-03T07:28:42;94812.56;;;5.98;100.00
10097;BME280;5087;42.662;23.466;2023-04-03T07:31:25;94742.47;;;5.76;100.00
10097;BME280;5087;42.662;23.466;2023-04-03T07:33:52;94787.03;;;5.96;100.00
10097;BME280;5087;42.662;23.466;2023-04-03T07:36:21;94745.47;;;5.74;100.00
10097;BME280;5087;42.662;23.466;2023-04-03T07:38:49;94786.41;;;6.27;100.00
10097;BME280;5087;42.662;23.466;2023-04-03T07:41:18;94764.47;;;6.20;100.00
10097;BME280;5087;42.662;23.466;2023-04-03T07:43:46;94758.00;;;6.43;100.00
10097;BME280;5087;42.662;23.466;2023-04-03T07:46:19;94751.56;;;6.53;100.00
10097;BME280;5087;42.662;23.466;2023-04-03T07:48:51;94776.31;;;6.55;100.00
10097;BME280;5087;42.662;23.466;2023-04-03T07:51:18;94760.09;;;6.69;100.00
10097;BME280;5087;42.662;23.466;2023-04-03T07:53:46;94774.50;;;6.64;100.00
10097;BME280;5087;42.662;23.466;2023-04-03T07:56:16;94781.75;;;6.78;100.00
10097;BME280;5087;42.662;23.466;2023-04-03T07:58:44;94751.25;;;6.77;100.00
10097;BME280;5087;42.662;23.466;2023-04-03T08:01:15;94770.75;;;7.28;100.00
10097;BME280;5087;42.662;23.466;2023-04-03T08:03:42;94765.22;;;7.34;100.00
10097;BME280;5087;42.662;23.466;2023-04-03T08:06:50;94774.34;;;7.55;100.00
10097;BME280;5087;42.662;23.466;2023-04-03T08:09:19;94771.19;;;7.53;100.00
10097;BME280;5087;42.662;23.466;2023-04-03T08:11:46;94720.97;;;7.52;100.00
10097;BME280;5087;42.662;23.466;2023-04-03T08:14:14;94716.28;;;7.84;100.00
10097;BME280;5087;42.662;23.466;2023-04-03T08:16:44;94762.81;;;8.39;100.00
10097;BME280;5087;42.662;23.466;2023-04-03T08:19:12;94708.03;;;7.89;100.00
10097;BME280;5087;42.662;23.466;2023-04-03T08:21:46;94678.47;;;8.02;100.00
10097;BME280;5087;42.662;23.466;2023-04-03T08:24:15;94754.53;;;8.44;100.00
10097;BME280;5087;42.662;23.466;2023-04-03T08:26:44;94712.53;;;8.64;100.00
10097;BME280;5087;42.662;23.466;2023-04-03T08:29:16;94689.38;;;8.93;100.00
10097;BME280;5087;42.662;23.466;2023-04-03T08:31:43;94667.97;;;9.09;100.00
10097;BME280;5087;42.662;23.466;2023-04-03T08:34:11;94724.31;;;9.25;100.00
10097;BME280;5087;42.662;23.466;2023-04-03T08:36:38;94693.88;;;9.28;100.00
10097;BME280;5087;42.662;23.466;2023-04-03T08:39:06;94732.88;;;9.74;100.00
10097;BME280;5087;42.662;23.466;2023-04-03T08:41:39;94686.59;;;9.79;100.00
10097;BME280;5087;42.662;23.466;2023-04-03T08:44:15;94717.25;;;9.71;100.00
10097;BME280;5087;42.662;23.466;2023-04-03T08:47:02;94680.78;;;9.69;100.00
10097;BME280;5087;42.662;23.466;2023-04-03T08:49:36;94638.34;;;9.73;100.00
10097;BME280;5087;42.662;23.466;2023-04-03T08:52:22;94706.16;;;10.15;100.00
10097;BME280;5087;42.662;23.466;2023-04-03T08:55:14;94709.25;;;10.05;100.00
10097;BME280;5087;42.662;23.466;2023-04-03T08:58:00;94704.53;;;10.44;100.00
10097;BME280;5087;42.662;23.466;2023-04-03T09:00:37;94703.38;;;10.66;100.00
10097;BME280;5087;42.662;23.466;2023-04-03T09:07:31;94691.75;;;11.24;100.00
10097;BME280;5087;42.662;23.466;2023-04-03T09:10:46;94688.97;;;10.87;100.00
10097;BME280;5087;42.662;23.466;2023-04-03T09:14:22;94685.09;;;10.75;100.00
10097;BME280;5087;42.662;23.466;2023-04-03T09:17:00;94682.00;;;11.11;100.00
10097;BME280;5087;42.662;23.466;2023-04-03T09:23:27;94676.66;;;10.56;100.00
10097;BME280;5087;42.662;23.466;2023-04-03T09:26:13;94671.31;;;10.93;100.00
10097;BME280;5087;42.662;23.466;2023-04-03T09:29:07;94660.31;;;11.35;100.00
10097;BME280;5087;42.662;23.466;2023-04-03T09:35:16;94670.75;;;10.54;100.00
10097;BME280;5087;42.662;23.466;2023-04-03T09:41:13;94665.88;;;10.47;100.00
10097;BME280;5087;42.662;23.466;2023-04-03T09:48:08;94653.56;;;10.50;100.00
10097;BME280;5087;42.662;23.466;2023-04-03T09:57:46;94637.56;;;10.69;100.00
10097;BME280;5087;42.662;23.466;2023-04-03T10:01:00;94628.38;;;10.61;100.00
10097;BME280;5087;42.662;23.466;2023-04-03T10:03:51;94639.31;;;10.99;100.00
10097;BME280;5087;42.662;23.466;2023-04-03T10:07:02;94630.84;;;11.50;100.00
10097;BME280;5087;42.662;23.466;2023-04-03T10:12:44;94636.28;;;11.50;100.00
10097;BME280;5087;42.662;23.466;2023-04-03T10:15:17;94629.56;;;10.85;100.00
10097;BME280;5087;42.662;23.466;2023-04-03T10:17:54;94640.59;;;11.14;100.00
10097;BME280;5087;42.662;23.466;2023-04-03T10:20:49;94620.75;;;10.88;100.00
10097;BME280;5087;42.662;23.466;2023-04-03T10:23:28;94617.19;;;10.63;100.00
10097;BME280;5087;42.662;23.466;2023-04-03T10:26:31;94630.56;;;10.81;100.00
10097;BME280;5087;42.662;23.466;2023-04-03T10:32:52;94617.59;;;11.61;100.00
10097;BME280;5087;42.662;23.466;2023-04-03T10:39:39;94612.47;;;10.72;100.00
10097;BME280;5087;42.662;23.466;2023-04-03T10:42:27;94602.34;;;11.19;100.00
10097;BME280;5087;42.662;23.466;2023-04-03T10:51:24;94602.44;;;11.22;100.00
10097;BME280;5087;42.662;23.466;2023-04-03T10:54:06;94567.56;;;10.75;100.00
10097;BME280;5087;42.662;23.466;2023-04-03T10:57:05;94609.28;;;10.70;100.00
10097;BME280;5087;42.662;23.466;2023-04-03T10:59:55;94602.72;;;10.59;100.00
10097;BME280;5087;42.662;23.466;2023-04-03T11:02:30;94616.38;;;10.29;100.00
10097;BME280;5087;42.662;23.466;2023-04-03T11:05:29;94619.66;;;10.35;100.00
10097;BME280;5087;42.662;23.466;2023-04-03T11:08:17;94614.94;;;10.10;100.00
10097;BME280;5087;42.662;23.466;2023-04-03T11:11:00;94620.22;;;9.86;100.00
10097;BME280;5087;42.662;23.466;2023-04-03T11:13:45;94626.44;;;9.65;100.00
10097;BME280;5087;42.662;23.466;2023-04-03T11:16:30;94631.31;;;9.50;100.00
10097;BME280;5087;42.662;23.466;2023-04-03T11:19:21;94628.38;;;9.64;100.00
10097;BME280;5087;42.662;23.466;2023-04-03T11:22:01;94631.94;;;9.47;100.00
10097;BME280;5087;42.662;23.466;2023-04-03T11:24:46;94587.41;;;9.06;100.00
10097;BME280;5087;42.662;23.466;2023-04-03T11:27:23;94620.34;;;9.08;100.00
10097;BME280;5087;42.662;23.466;2023-04-03T11:29:53;94616.41;;;9.06;100.00
10097;BME280;5087;42.662;23.466;2023-04-03T11:32:44;94611.50;;;8.99;100.00
10097;BME280;5087;42.662;23.466;2023-04-03T11:35:16;94609.44;;;9.26;100.00
10097;BME280;5087;42.662;23.466;2023-04-03T11:37:47;94618.47;;;9.09;100.00
10097;BME280;5087;42.662;23.466;2023-04-03T11:40:24;94604.06;;;8.87;100.00
10097;BME280;5087;42.662;23.466;2023-04-03T11:43:20;94618.03;;;8.89;100.00
10097;BME280;5087;42.662;23.466;2023-04-03T11:45:55;94599.69;;;8.65;100.00
10097;BME280;5087;42.662;23.466;2023-04-03T11:48:52;94630.19;;;8.83;100.00
10097;BME280;5087;42.662;23.466;2023-04-03T11:51:44;94634.50;;;8.75;100.00
10097;BME280;5087;42.662;23.466;2023-04-03T11:54:46;94638.66;;;8.64;100.00
10097;BME280;5087;42.662;23.466;2023-04-03T12:03:31;94640.44;;;8.51;100.00
10097;BME280;5087;42.662;23.466;2023-04-03T12:09:25;94616.28;;;8.19;100.00
10097;BME280;5087;42.662;23.466;2023-04-03T12:11:54;94632.81;;;8.27;100.00
10097;BME280;5087;42.662;23.466;2023-04-03T12:14:23;94597.22;;;8.07;100.00
10097;BME280;5087;42.662;23.466;2023-04-03T12:16:52;94626.63;;;8.17;100.00
10097;BME280;5087;42.662;23.466;2023-04-03T12:19:37;94637.28;;;8.49;100.00
10097;BME280;5087;42.662;23.466;2023-04-03T12:22:14;94632.81;;;8.27;100.00
10097;BME280;5087;42.662;23.466;2023-04-03T12:24:43;94632.31;;;8.42;100.00
10097;BME280;5087;42.662;23.466;2023-04-03T12:27:29;94618.97;;;8.37;100.00
10097;BME280;5087;42.662;23.466;2023-04-03T12:30:04;94621.81;;;8.32;100.00
10097;BME280;5087;42.662;23.466;2023-04-03T12:32:44;94624.72;;;8.27;100.00
10097;BME280;5087;42.662;23.466;2023-04-03T12:35:21;94635.97;;;8.37;100.00
10097;BME280;5087;42.662;23.466;2023-04-03T12:38:22;94592.59;;;8.16;100.00
10097;BME280;5087;42.662;23.466;2023-04-03T12:41:00;94632.03;;;8.17;100.00
10097;BME280;5087;42.662;23.466;2023-04-03T12:43:44;94604.22;;;8.08;100.00
10097;BME280;5087;42.662;23.466;2023-04-03T12:46:23;94596.75;;;8.05;100.00
10097;BME280;5087;42.662;23.466;2023-04-03T12:48:52;94577.84;;;7.96;100.00
10097;BME280;5087;42.662;23.466;2023-04-03T12:51:35;94581.50;;;7.91;100.00
10097;BME280;5087;42.662;23.466;2023-04-03T12:54:13;94589.13;;;7.89;100.00
10097;BME280;5087;42.662;23.466;2023-04-03T12:56:46;94583.09;;;7.92;100.00
10097;BME280;5087;42.662;23.466;2023-04-03T12:59:27;94589.91;;;7.81;100.00
10097;BME280;5087;42.662;23.466;2023-04-03T13:02:09;94575.91;;;7.79;100.00
10097;BME280;5087;42.662;23.466;2023-04-03T13:04:39;94596.28;;;7.85;100.00
10097;BME280;5087;42.662;23.466;2023-04-03T13:07:21;94576.09;;;7.74;100.00
10097;BME280;5087;42.662;23.466;2023-04-03T13:09:56;94587.84;;;7.78;100.00
10097;BME280;5087;42.662;23.466;2023-04-03T13:12:23;94565.59;;;7.64;100.00
10097;BME280;5087;42.662;23.466;2023-04-03T13:14:56;94610.59;;;7.86;100.00
10097;BME280;5087;42.662;23.466;2023-04-03T13:17:24;94604.41;;;7.85;100.00
10097;BME280;5087;42.662;23.466;2023-04-03T13:19:54;94599.63;;;7.82;100.00
10097;BME280;5087;42.662;23.466;2023-04-03T13:22:29;94598.47;;;7.74;100.00
10097;BME280;5087;42.662;23.466;2023-04-03T13:25:07;94597.53;;;7.79;100.00
10097;BME280;5087;42.662;23.466;2023-04-03T13:27:39;94581.50;;;7.74;100.00
10097;BME280;5087;42.662;23.466;2023-04-03T13:30:25;94581.97;;;7.85;100.00
10097;BME280;5087;42.662;23.466;2023-04-03T13:33:00;94585.00;;;7.83;100.00
10097;BME280;5087;42.662;23.466;2023-04-03T13:35:34;94590.88;;;7.85;100.00
10097;BME280;5087;42.662;23.466;2023-04-03T13:38:23;94583.56;;;7.77;100.00
10097;BME280;5087;42.662;23.466;2023-04-03T13:40:53;94579.28;;;7.76;100.00
10097;BME280;5087;42.662;23.466;2023-04-03T13:43:25;94556.72;;;7.54;100.00
10097;BME280;5087;42.662;23.466;2023-04-03T13:46:03;94575.78;;;7.67;100.00
10097;BME280;5087;42.662;23.466;2023-04-03T13:48:38;94561.63;;;7.52;100.00
10097;BME280;5087;42.662;23.466;2023-04-03T13:51:15;94586.41;;;7.54;100.00
10097;BME280;5087;42.662;23.466;2023-04-03T13:53:50;94578.94;;;7.51;100.00
10097;BME280;5087;42.662;23.466;2023-04-03T13:56:23;94572.91;;;7.54;100.00
10097;BME280;5087;42.662;23.466;2023-04-03T13:59:04;94577.34;;;7.50;100.00
10097;BME280;5087;42.662;23.466;2023-04-03T14:01:42;94566.38;;;7.47;100.00
10097;BME280;5087;42.662;23.466;2023-04-03T14:04:13;94568.91;;;7.52;100.00
10097;BME280;5087;42.662;23.466;2023-04-03T14:06:41;94546.50;;;7.34;100.00
10097;BME280;5087;42.662;23.466;2023-04-03T14:09:11;94541.59;;;7.27;100.00
10097;BME280;5087;42.662;23.466;2023-04-03T14:11:46;94561.47;;;7.49;100.00
10097;BME280;5087;42.662;23.466;2023-04-03T14:14:17;94557.66;;;7.58;100.00
10097;BME280;5087;42.662;23.466;2023-04-03T14:16:50;94529.38;;;7.29;100.00
10097;BME280;5087;42.662;23.466;2023-04-03T14:19:22;94565.59;;;7.46;100.00
10097;BME280;5087;42.662;23.466;2023-04-03T14:22:13;94563.53;;;7.52;100.00
10097;BME280;5087;42.662;23.466;2023-04-03T14:24:52;94543.19;;;7.37;100.00
10097;BME280;5087;42.662;23.466;2023-04-03T14:27:26;94558.13;;;7.43;100.00